Terminal Aerodrome Forecast
Issued by NWS

Home | Current Version | Previous Version | Text Only | Print | Product List | Glossary On
Versions: 1 2 3 4 5 6 7 8 9 10 11 12 13 14 15 16
308
FTPA31 PHFO 271140
TAFHTO
TAF
PHTO 271140Z 2712/2812 25005KT P6SM VCSH SCT020 BKN040
      TEMPO 2712/2716 2SM +SHRA BR BKN020
     FM272000 11009KT P6SM VCSH SCT020 BKN045
     FM280400 24005KT 5SM SHRA BR SCT015 BKN025 OVC060
      TEMPO 2804/2808 2SM +SHRA BR BKN015=

USA.gov is the U.S. government's official web portal to all federal, state and local government web resources and services.